createdAt,value
2019-04-30T00:01:48.596Z,25.37
2019-04-30T00:04:25.384Z,28.35
2019-04-30T00:06:57.120Z,24.82
2019-04-30T00:09:29.317Z,24.37
2019-04-30T00:12:01.385Z,26.93
2019-04-30T00:14:38.601Z,25.85
2019-04-30T00:17:06.390Z,26.75
2019-04-30T00:19:38.017Z,24.12
2019-04-30T00:22:09.339Z,23.38
2019-04-30T00:24:46.846Z,24.82
2019-04-30T00:27:15.122Z,25.75
2019-04-30T00:29:46.617Z,22.10
2019-04-30T00:32:17.908Z,23.30
2019-04-30T00:34:49.592Z,21.75
2019-04-30T00:37:20.945Z,23.52
2019-04-30T00:39:53.052Z,20.72
2019-04-30T00:42:28.083Z,21.55
2019-04-30T00:44:59.647Z,20.17
2019-04-30T00:47:30.375Z,24.02
2019-04-30T00:50:01.960Z,21.23
2019-04-30T00:52:35.199Z,23.12
2019-04-30T00:55:09.080Z,20.25
2019-04-30T00:57:43.650Z,22.37
2019-04-30T01:00:19.679Z,20.37
2019-04-30T01:03:09.362Z,21.00
2019-04-30T01:05:46.453Z,22.52
2019-04-30T01:08:15.367Z,19.32
2019-04-30T01:10:46.916Z,20.70
2019-04-30T01:13:19.216Z,20.68
2019-04-30T01:15:52.545Z,18.50
2019-04-30T01:18:28.526Z,17.57
2019-04-30T01:20:58.701Z,17.23
2019-04-30T01:23:30.425Z,17.10
2019-04-30T01:26:02.133Z,18.98
2019-04-30T01:28:33.501Z,17.05
2019-04-30T01:31:04.975Z,18.02
2019-04-30T01:33:36.192Z,17.85
2019-04-30T01:36:09.532Z,19.25
2019-04-30T01:38:44.717Z,13.70
2019-04-30T01:41:13.648Z,16.02
2019-04-30T01:43:45.148Z,16.85
2019-04-30T01:46:16.434Z,16.05
2019-04-30T01:48:51.930Z,17.87
2019-04-30T01:51:22.057Z,18.15
2019-04-30T01:53:53.672Z,14.73
2019-04-30T01:56:32.155Z,15.70
2019-04-30T01:59:09.187Z,15.00
2019-04-30T02:01:42.684Z,13.65
2019-04-30T02:04:14.315Z,17.02
2019-04-30T02:06:46.035Z,16.12
2019-04-30T02:09:18.914Z,17.82
2019-04-30T02:11:50.641Z,16.60
2019-04-30T02:14:21.845Z,15.60
2019-04-30T02:16:53.126Z,14.35
2019-04-30T02:19:24.337Z,15.55
2019-04-30T02:21:55.731Z,16.82
2019-04-30T02:24:28.869Z,17.00
2019-04-30T02:27:00.248Z,16.95
2019-04-30T02:29:31.776Z,18.98
2019-04-30T02:32:03.083Z,20.17
2019-04-30T02:34:44.348Z,19.17
2019-04-30T02:37:21.081Z,18.92
2019-04-30T02:39:52.348Z,18.52
2019-04-30T02:42:25.027Z,15.48
2019-04-30T02:45:00.118Z,15.35
2019-04-30T02:47:33.643Z,13.70
2019-04-30T02:50:15.376Z,16.02
2019-04-30T02:52:43.166Z,14.45
2019-04-30T02:55:19.613Z,17.05
2019-04-30T02:57:51.161Z,15.93
2019-04-30T03:00:22.381Z,14.50
2019-04-30T03:02:53.622Z,12.95
2019-04-30T03:05:24.944Z,16.32
2019-04-30T03:07:56.607Z,14.43
2019-04-30T03:10:30.189Z,13.13
2019-04-30T03:13:00.902Z,15.15
2019-04-30T03:15:32.134Z,11.85
2019-04-30T03:18:16.872Z,12.60
2019-04-30T03:21:09.618Z,13.30
2019-04-30T03:23:40.036Z,12.10
2019-04-30T03:26:12.983Z,14.47
2019-04-30T03:28:44.722Z,12.28
2019-04-30T03:31:16.629Z,13.60
2019-04-30T03:33:51.981Z,14.68
2019-04-30T03:36:22.009Z,12.60
2019-04-30T03:38:54.107Z,14.35
2019-04-30T03:41:25.416Z,11.75
2019-04-30T03:44:16.062Z,11.65
2019-04-30T03:46:30.211Z,11.97
2019-04-30T03:49:01.769Z,11.45
2019-04-30T03:51:33.031Z,12.53
2019-04-30T03:54:04.985Z,11.88
2019-04-30T03:56:36.263Z,12.25
2019-04-30T03:59:10.105Z,13.40
2019-04-30T04:02:05.954Z,9.75
2019-04-30T04:05:05.384Z,10.08
2019-04-30T04:07:59.835Z,10.25
2019-04-30T04:10:53.098Z,10.78
2019-04-30T04:13:23.897Z,11.40
2019-04-30T04:15:59.898Z,10.03
2019-04-30T04:18:31.989Z,10.18
2019-04-30T04:21:11.708Z,9.15
2019-04-30T04:23:39.624Z,8.85
2019-04-30T04:26:09.893Z,9.00
2019-04-30T04:28:43.484Z,10.45
2019-04-30T04:31:14.342Z,9.98
2019-04-30T04:33:46.109Z,9.28
2019-04-30T04:36:17.300Z,8.93
2019-04-30T04:38:50.651Z,10.95
2019-04-30T04:41:22.187Z,8.35
2019-04-30T04:43:53.813Z,7.97
2019-04-30T04:46:25.360Z,7.33
2019-04-30T04:48:59.443Z,7.95
2019-04-30T04:51:38.081Z,7.85
2019-04-30T04:54:03.500Z,8.28
2019-04-30T04:56:35.112Z,6.42
2019-04-30T04:59:06.437Z,9.13
2019-04-30T05:01:38.786Z,9.58
2019-04-30T05:04:11.839Z,9.50
2019-04-30T05:06:43.582Z,6.92
2019-04-30T05:09:14.894Z,8.48
2019-04-30T05:11:46.462Z,8.38
2019-04-30T05:14:18.960Z,7.20
2019-04-30T05:16:50.779Z,8.43
2019-04-30T05:19:22.273Z,9.68
2019-04-30T05:21:53.426Z,8.53
2019-04-30T05:24:24.779Z,9.00
2019-04-30T05:26:56.098Z,8.63
2019-04-30T05:29:28.912Z,9.60
2019-04-30T05:32:01.327Z,6.60
2019-04-30T05:34:32.618Z,6.78
2019-04-30T05:37:04.249Z,9.00
2019-04-30T05:39:35.398Z,6.10
2019-04-30T05:42:08.773Z,8.45
2019-04-30T05:44:40.126Z,8.88
2019-04-30T05:47:11.718Z,7.67
2019-04-30T05:49:42.845Z,10.30
2019-04-30T05:52:14.097Z,11.35
2019-04-30T05:54:45.394Z,7.03
2019-04-30T05:57:16.800Z,8.95
2019-04-30T05:59:49.364Z,6.47
2019-04-30T06:02:20.756Z,17.77
2019-04-30T06:04:52.167Z,8.73
2019-04-30T06:07:24.831Z,7.62
2019-04-30T06:10:02.257Z,6.47
2019-04-30T06:12:55.047Z,6.00
2019-04-30T06:15:39.929Z,7.45
2019-04-30T06:18:14.025Z,8.40
2019-04-30T06:20:44.697Z,9.10
2019-04-30T06:23:16.318Z,5.90
2019-04-30T06:25:57.345Z,5.30
2019-04-30T06:28:23.091Z,5.35
2019-04-30T06:30:54.788Z,5.70
2019-04-30T06:33:26.113Z,5.90
2019-04-30T06:35:59.016Z,6.08
2019-04-30T06:38:30.398Z,5.35
2019-04-30T06:41:01.818Z,5.70
2019-04-30T06:43:33.746Z,6.42
2019-04-30T06:46:05.756Z,5.45
2019-04-30T06:48:39.223Z,6.62
2019-04-30T06:51:10.774Z,7.92
2019-04-30T06:53:42.185Z,6.03
2019-04-30T06:56:14.205Z,5.85
2019-04-30T06:58:45.851Z,5.42
2019-04-30T07:01:18.957Z,5.28
2019-04-30T07:03:50.299Z,5.95
2019-04-30T07:06:29.614Z,6.83
2019-04-30T07:09:19.740Z,4.92
2019-04-30T07:12:01.682Z,6.05
2019-04-30T07:14:33.317Z,7.33
2019-04-30T07:17:05.803Z,6.30
2019-04-30T07:19:51.068Z,5.17
2019-04-30T07:22:12.086Z,7.53
2019-04-30T07:24:43.664Z,5.58
2019-04-30T07:27:14.817Z,8.20
2019-04-30T07:29:46.002Z,6.58
2019-04-30T07:32:19.738Z,7.53
2019-04-30T07:34:50.580Z,7.97
2019-04-30T07:37:24.732Z,5.45
2019-04-30T07:39:55.294Z,8.35
2019-04-30T07:42:26.962Z,5.15
2019-04-30T07:45:00.694Z,5.90
2019-04-30T07:47:31.913Z,5.67
2019-04-30T07:50:03.198Z,6.08
2019-04-30T07:52:35.527Z,5.30
2019-04-30T07:55:09.753Z,10.18
2019-04-30T07:57:41.206Z,5.37
2019-04-30T08:00:12.461Z,5.28
2019-04-30T08:02:51.780Z,5.40
2019-04-30T08:05:29.993Z,6.00
2019-04-30T08:08:16.812Z,5.83
2019-04-30T08:10:34.268Z,11.15
2019-04-30T08:13:10.113Z,5.10
2019-04-30T08:15:42.143Z,8.88
2019-04-30T08:18:12.190Z,5.30
2019-04-30T08:20:43.456Z,5.17
2019-04-30T08:23:31.491Z,6.12
2019-04-30T08:25:48.998Z,7.58
2019-04-30T08:28:21.134Z,5.42
2019-04-30T08:30:52.385Z,6.15
2019-04-30T08:33:23.713Z,5.37
2019-04-30T08:35:56.278Z,6.10
2019-04-30T08:38:27.624Z,6.08
2019-04-30T08:41:00.857Z,6.42
2019-04-30T08:43:32.144Z,6.85
2019-04-30T08:46:03.736Z,5.62
2019-04-30T08:48:49.956Z,5.92
2019-04-30T08:51:10.018Z,6.70
2019-04-30T08:53:41.771Z,5.97
2019-04-30T08:56:13.225Z,6.30
2019-04-30T08:58:44.487Z,5.05
2019-04-30T09:01:17.285Z,5.33
2019-04-30T09:03:51.391Z,5.42
2019-04-30T09:06:29.069Z,7.37
2019-04-30T09:09:20.763Z,5.75
2019-04-30T09:11:55.584Z,7.75
2019-04-30T09:14:25.612Z,10.05
2019-04-30T09:16:56.799Z,5.37
2019-04-30T09:19:29.734Z,5.83
2019-04-30T09:22:01.367Z,5.95
2019-04-30T09:24:33.040Z,12.10
2019-04-30T09:27:05.638Z,5.58
2019-04-30T09:29:39.079Z,6.95
2019-04-30T09:32:10.443Z,5.47
2019-04-30T09:34:42.062Z,6.08
2019-04-30T09:37:13.384Z,5.97
2019-04-30T09:39:44.509Z,6.55
2019-04-30T09:42:15.660Z,6.17
2019-04-30T09:44:49.216Z,5.33
2019-04-30T09:47:20.743Z,6.50
2019-04-30T09:49:51.958Z,5.15
2019-04-30T09:52:23.307Z,5.03
2019-04-30T09:54:54.535Z,5.30
2019-04-30T09:57:26.126Z,5.35
2019-04-30T09:59:57.337Z,6.37
2019-04-30T10:02:29.067Z,5.40
2019-04-30T10:05:00.947Z,5.78
2019-04-30T10:07:34.052Z,6.85
2019-04-30T10:10:08.871Z,5.95
2019-04-30T10:12:39.273Z,5.55
2019-04-30T10:15:13.686Z,7.25
2019-04-30T10:17:45.548Z,4.92
2019-04-30T10:20:18.803Z,4.62
2019-04-30T10:22:51.221Z,7.53
2019-04-30T10:25:22.817Z,6.65
2019-04-30T10:27:54.148Z,6.15
2019-04-30T10:30:31.759Z,7.05
2019-04-30T10:33:03.102Z,5.47
2019-04-30T10:35:34.420Z,7.00
2019-04-30T10:38:06.114Z,5.20
2019-04-30T10:40:39.000Z,6.17
2019-04-30T10:43:10.536Z,5.28
2019-04-30T10:45:42.609Z,6.15
2019-04-30T10:48:13.925Z,4.92
2019-04-30T10:50:45.309Z,6.85
2019-04-30T10:53:16.726Z,5.87
2019-04-30T10:55:48.582Z,4.78
2019-04-30T10:58:20.085Z,4.33
2019-04-30T11:00:51.445Z,4.50
2019-04-30T11:03:23.345Z,11.28
2019-04-30T11:05:54.638Z,5.30
2019-04-30T11:08:26.618Z,4.60
2019-04-30T11:10:57.919Z,7.58
2019-04-30T11:13:29.820Z,5.67
2019-04-30T11:16:12.168Z,5.10
2019-04-30T11:18:34.614Z,5.50
2019-04-30T11:21:06.235Z,4.95
2019-04-30T11:23:39.491Z,4.70
2019-04-30T11:26:11.553Z,5.75
2019-04-30T11:28:43.583Z,6.10
2019-04-30T11:31:34.395Z,6.60
2019-04-30T11:34:07.677Z,5.35
2019-04-30T11:36:39.058Z,4.65
2019-04-30T11:39:18.594Z,5.50
2019-04-30T11:41:50.512Z,4.95
2019-04-30T11:44:30.260Z,6.03
2019-04-30T11:47:32.409Z,4.87
2019-04-30T11:50:05.973Z,5.15
2019-04-30T11:52:37.311Z,4.85
2019-04-30T11:55:11.753Z,6.15
2019-04-30T11:57:43.113Z,4.47
2019-04-30T12:00:23.813Z,4.85
2019-04-30T12:02:55.392Z,5.40
2019-04-30T12:05:26.736Z,4.90
2019-04-30T12:08:11.128Z,4.37
2019-04-30T12:11:05.385Z,4.72
2019-04-30T12:13:37.346Z,4.53
2019-04-30T12:16:09.137Z,3.75
2019-04-30T12:18:42.267Z,5.85
2019-04-30T12:21:13.789Z,7.75
2019-04-30T12:23:45.629Z,4.37
2019-04-30T12:26:18.938Z,7.17
2019-04-30T12:28:49.910Z,3.83
2019-04-30T12:31:21.975Z,7.30
2019-04-30T12:33:53.615Z,4.70
2019-04-30T12:36:25.165Z,5.42
2019-04-30T12:38:56.688Z,4.95
2019-04-30T12:41:28.267Z,3.80
2019-04-30T12:44:00.238Z,4.58
2019-04-30T12:46:31.789Z,3.72
2019-04-30T12:49:11.217Z,4.28
2019-04-30T12:51:58.725Z,4.28
2019-04-30T12:54:44.650Z,5.22
2019-04-30T12:57:24.802Z,4.12
2019-04-30T12:59:56.122Z,3.52
2019-04-30T13:02:29.025Z,7.80
2019-04-30T13:05:00.704Z,3.30
2019-04-30T13:07:32.898Z,5.70
2019-04-30T13:10:06.198Z,3.92
2019-04-30T13:12:38.596Z,4.22
2019-04-30T13:15:11.638Z,5.53
2019-04-30T13:17:42.925Z,4.60
2019-04-30T13:20:21.269Z,4.12
2019-04-30T13:22:48.907Z,4.53
2019-04-30T13:25:29.927Z,3.92
2019-04-30T13:27:56.540Z,5.37
2019-04-30T13:30:30.040Z,3.95
2019-04-30T13:33:09.718Z,3.65
2019-04-30T13:35:41.026Z,4.95
2019-04-30T13:38:20.682Z,3.98
2019-04-30T13:40:58.906Z,4.30
2019-04-30T13:43:48.690Z,3.50
2019-04-30T13:46:20.113Z,4.45
2019-04-30T13:48:51.413Z,3.90
2019-04-30T13:51:22.620Z,3.90
2019-04-30T13:53:54.783Z,3.45
2019-04-30T13:56:26.215Z,4.70
2019-04-30T13:58:58.068Z,3.70
2019-04-30T14:01:29.652Z,4.62
2019-04-30T14:04:16.448Z,7.67
2019-04-30T14:07:13.368Z,4.03
2019-04-30T14:09:44.697Z,5.20
2019-04-30T14:12:17.380Z,4.78
2019-04-30T14:14:49.364Z,5.35
2019-04-30T14:17:20.905Z,4.83
2019-04-30T14:19:52.488Z,5.17
2019-04-30T14:22:24.098Z,5.40
2019-04-30T14:24:56.249Z,5.97
2019-04-30T14:27:27.817Z,4.85
2019-04-30T14:29:59.423Z,6.47
2019-04-30T14:32:32.058Z,4.97
2019-04-30T14:35:03.921Z,5.15
2019-04-30T14:37:35.759Z,7.17
2019-04-30T14:40:12.252Z,4.65
2019-04-30T14:42:48.498Z,4.20
2019-04-30T14:45:29.052Z,6.37
2019-04-30T14:48:12.915Z,4.85
2019-04-30T14:50:44.797Z,4.65
2019-04-30T14:53:23.442Z,4.92
2019-04-30T14:56:26.512Z,7.08
2019-04-30T14:59:20.759Z,5.33
2019-04-30T15:01:59.853Z,6.28
2019-04-30T15:04:32.328Z,5.70
2019-04-30T15:07:04.012Z,5.97
2019-04-30T15:09:35.608Z,5.75
2019-04-30T15:12:07.147Z,7.20
2019-04-30T15:14:38.806Z,6.95
2019-04-30T15:17:12.075Z,6.42
2019-04-30T15:19:43.441Z,6.05
2019-04-30T15:22:15.064Z,5.30
2019-04-30T15:24:46.647Z,8.33
2019-04-30T15:27:19.154Z,6.42
2019-04-30T15:29:57.129Z,6.45
2019-04-30T15:32:23.383Z,5.95
2019-04-30T15:34:54.917Z,6.28
2019-04-30T15:37:26.342Z,5.97
2019-04-30T15:39:59.117Z,6.87
2019-04-30T15:42:30.653Z,6.62
2019-04-30T15:45:01.962Z,5.78
2019-04-30T15:47:33.719Z,7.25
2019-04-30T15:50:06.875Z,6.50
2019-04-30T15:52:38.736Z,5.78
2019-04-30T15:55:12.312Z,6.08
2019-04-30T15:57:59.443Z,7.12
2019-04-30T16:00:32.976Z,7.53
2019-04-30T16:03:10.083Z,16.30
2019-04-30T16:05:44.044Z,6.67
2019-04-30T16:08:35.402Z,8.60
2019-04-30T16:11:34.616Z,8.43
2019-04-30T16:14:14.664Z,7.22
2019-04-30T16:16:51.697Z,7.03
2019-04-30T16:19:23.148Z,6.85
2019-04-30T16:21:54.416Z,6.08
2019-04-30T16:24:25.946Z,6.62
2019-04-30T16:26:59.189Z,7.83
2019-04-30T16:29:30.609Z,7.08
2019-04-30T16:32:02.962Z,6.53
2019-04-30T16:34:34.908Z,7.83
2019-04-30T16:37:06.669Z,6.83
2019-04-30T16:39:39.790Z,6.22
2019-04-30T16:42:12.731Z,7.70
2019-04-30T16:44:44.407Z,7.85
2019-04-30T16:47:17.024Z,6.03
2019-04-30T16:49:49.652Z,8.53
2019-04-30T16:52:24.257Z,8.33
2019-04-30T16:54:56.041Z,7.10
2019-04-30T16:57:30.179Z,7.03
2019-04-30T17:00:01.511Z,6.40
2019-04-30T17:02:32.872Z,7.60
2019-04-30T17:05:19.901Z,7.90
2019-04-30T17:08:01.858Z,8.18
2019-04-30T17:10:51.364Z,6.85
2019-04-30T17:13:44.883Z,6.45
2019-04-30T17:16:19.568Z,7.78
2019-04-30T17:18:51.089Z,9.85
2019-04-30T17:21:23.243Z,8.63
2019-04-30T17:23:54.912Z,9.40
2019-04-30T17:26:26.214Z,9.40
2019-04-30T17:28:59.725Z,8.45
2019-04-30T17:31:30.836Z,8.15
2019-04-30T17:34:02.538Z,14.13
2019-04-30T17:36:34.306Z,9.30
2019-04-30T17:39:10.977Z,9.55
2019-04-30T17:41:42.942Z,8.88
2019-04-30T17:44:15.615Z,8.08
2019-04-30T17:46:46.917Z,10.82
2019-04-30T17:49:18.984Z,12.20
2019-04-30T17:51:51.809Z,13.40
2019-04-30T17:54:23.210Z,11.40
2019-04-30T17:56:54.845Z,9.03
2019-04-30T17:59:26.359Z,10.08
2019-04-30T18:02:01.566Z,11.83
2019-04-30T18:04:33.490Z,9.70
2019-04-30T18:07:04.998Z,13.68
2019-04-30T18:09:36.356Z,12.03
2019-04-30T18:12:09.350Z,13.83
2019-04-30T18:14:40.746Z,17.57
2019-04-30T18:17:11.994Z,12.47
2019-04-30T18:19:49.831Z,13.78
2019-04-30T18:22:40.442Z,15.05
2019-04-30T18:25:33.443Z,13.43
2019-04-30T18:28:05.266Z,14.53
2019-04-30T18:30:39.091Z,12.53
2019-04-30T18:33:12.053Z,12.30
2019-04-30T18:35:43.397Z,11.80
2019-04-30T18:38:17.638Z,11.57
2019-04-30T18:40:49.541Z,13.80
2019-04-30T18:43:21.335Z,12.18
2019-04-30T18:45:52.569Z,19.30
2019-04-30T18:48:24.991Z,23.87
2019-04-30T18:50:56.271Z,21.45
2019-04-30T18:53:29.937Z,19.05
2019-04-30T18:56:01.550Z,17.32
2019-04-30T18:58:40.036Z,18.52
2019-04-30T19:01:09.260Z,20.77
2019-04-30T19:03:41.029Z,16.90
2019-04-30T19:06:23.843Z,21.37
2019-04-30T19:09:11.741Z,18.35
2019-04-30T19:11:49.893Z,16.07
2019-04-30T19:14:39.411Z,15.48
2019-04-30T19:17:25.934Z,14.75
2019-04-30T19:20:19.054Z,13.72
2019-04-30T19:22:51.425Z,12.78
2019-04-30T19:25:22.987Z,16.25
2019-04-30T19:27:54.524Z,12.68
2019-04-30T19:30:26.483Z,14.95
2019-04-30T19:32:58.927Z,14.53
2019-04-30T19:35:30.361Z,17.27
2019-04-30T19:38:01.980Z,16.67
2019-04-30T19:40:34.324Z,17.70
2019-04-30T19:43:05.580Z,18.90
2019-04-30T19:45:37.572Z,16.30
2019-04-30T19:48:09.082Z,18.02
2019-04-30T19:50:40.824Z,18.82
2019-04-30T19:53:12.003Z,19.27
2019-04-30T19:55:43.508Z,16.87
2019-04-30T19:58:26.163Z,17.75
2019-04-30T20:00:49.727Z,21.42
2019-04-30T20:03:20.834Z,21.35
2019-04-30T20:05:52.108Z,23.52
2019-04-30T20:08:23.707Z,21.95
2019-04-30T20:10:54.926Z,21.65
2019-04-30T20:13:35.717Z,22.67
2019-04-30T20:15:59.504Z,24.35
2019-04-30T20:18:30.948Z,25.48
2019-04-30T20:21:04.946Z,26.65
2019-04-30T20:23:36.147Z,29.23
2019-04-30T20:26:07.466Z,31.48
2019-04-30T20:28:42.248Z,34.10
2019-04-30T20:31:12.117Z,37.42
2019-04-30T20:33:43.722Z,39.58
2019-04-30T20:36:14.926Z,39.63
2019-04-30T20:39:11.284Z,33.35
2019-04-30T20:41:42.783Z,34.60
2019-04-30T20:44:14.114Z,31.82
2019-04-30T20:46:45.688Z,35.98
2019-04-30T20:49:19.090Z,37.73
2019-04-30T20:51:55.578Z,32.30
2019-04-30T20:54:23.043Z,38.20
2019-04-30T20:56:54.349Z,35.50
2019-04-30T20:59:26.381Z,39.08
2019-04-30T21:01:58.184Z,46.45
2019-04-30T21:04:30.043Z,41.10
2019-04-30T21:07:01.362Z,45.40
2019-04-30T21:09:35.607Z,39.25
2019-04-30T21:12:09.021Z,42.17
2019-04-30T21:14:40.599Z,39.80
2019-04-30T21:17:12.945Z,40.10
2019-04-30T21:19:44.572Z,30.75
2019-04-30T21:22:15.897Z,35.08
2019-04-30T21:24:47.095Z,36.38
2019-04-30T21:27:18.753Z,37.80
2019-04-30T21:29:50.238Z,36.77
2019-04-30T21:32:29.023Z,44.65
2019-04-30T21:35:28.918Z,39.55
2019-04-30T21:38:01.703Z,38.95
2019-04-30T21:40:33.380Z,38.53
2019-04-30T21:43:05.038Z,38.67
2019-04-30T21:45:36.441Z,42.75
2019-04-30T21:48:09.145Z,33.88
2019-04-30T21:50:40.598Z,40.60
2019-04-30T21:53:12.199Z,40.60
2019-04-30T21:55:43.757Z,43.13
2019-04-30T21:58:14.993Z,50.05
2019-04-30T22:01:04.729Z,44.55
2019-04-30T22:03:39.421Z,49.65
2019-04-30T22:06:10.941Z,50.15
2019-04-30T22:08:42.440Z,54.10
2019-04-30T22:11:14.664Z,52.78
2019-04-30T22:13:45.859Z,55.65
2019-04-30T22:16:20.050Z,54.40
2019-04-30T22:18:50.497Z,61.13
2019-04-30T22:21:22.037Z,66.60
2019-04-30T22:23:53.907Z,58.60
2019-04-30T22:26:25.357Z,65.30
2019-04-30T22:28:56.581Z,66.82
2019-04-30T22:31:29.507Z,63.10
2019-04-30T22:34:01.336Z,66.50
2019-04-30T22:36:40.199Z,63.55
2019-04-30T22:39:35.208Z,75.50
2019-04-30T22:42:36.662Z,77.35
2019-04-30T22:45:33.201Z,76.37
2019-04-30T22:48:04.495Z,68.62
2019-04-30T22:50:36.239Z,65.67
2019-04-30T22:53:07.525Z,61.23
2019-04-30T22:55:38.710Z,65.50
2019-04-30T22:58:09.999Z,56.42
2019-04-30T23:00:43.889Z,60.78
2019-04-30T23:03:20.083Z,55.23
2019-04-30T23:05:51.701Z,51.88
2019-04-30T23:08:23.471Z,41.85
2019-04-30T23:10:55.021Z,46.00
2019-04-30T23:13:26.700Z,51.60
2019-04-30T23:15:58.045Z,50.95
2019-04-30T23:18:32.177Z,56.05
2019-04-30T23:21:04.044Z,54.00
2019-04-30T23:23:36.552Z,57.23
2019-04-30T23:26:09.069Z,57.70
2019-04-30T23:28:40.279Z,57.67
2019-04-30T23:31:11.676Z,61.90
2019-04-30T23:33:42.836Z,54.88
2019-04-30T23:36:13.952Z,58.87
2019-04-30T23:38:45.148Z,60.45
2019-04-30T23:41:16.335Z,62.58
2019-04-30T23:43:47.545Z,66.12
2019-04-30T23:46:19.548Z,62.48
2019-04-30T23:48:51.103Z,56.40
2019-04-30T23:51:22.692Z,62.00
2019-04-30T23:53:54.274Z,60.80
2019-04-30T23:56:25.472Z,64.17
2019-04-30T23:58:56.699Z,72.75
